Time;durP1;ratioP1;P1;durP2;ratioP2;P2;SDS_P1;SDS_P2;PMS_P1;PMS_P2;Temp;Humidity;BMP_temperature;BMP_pressure;BME280_temperature;BME280_humidity;BME280_pressure;Samples;Min_cycle;Max_cycle;Signal;HPM_P1;HPM_P2
2021/11/17 02:28:43;;;;;;;13.80;8.20;;;;;;;2.17;93.23;97149.58;105189;1316;28231;-84
2021/11/17 02:31:34;;;;;;;19.80;11.10;;;;;;;2.18;92.95;97150.22;105253;1309;25404;-84
2021/11/17 02:34:19;;;;;;;15.80;10.10;;;;;;;2.21;92.93;97151.05;105200;1309;43181;-84
2021/11/17 02:37:06;;;;;;;20.40;14.10;;;;;;;2.23;93.05;97156.29;105224;1309;28230;-84
2021/11/17 02:39:53;;;;;;;19.60;11.50;;;;;;;2.20;92.78;97156.15;105312;1309;27769;-84
2021/11/17 02:42:53;;;;;;;18.00;12.30;;;;;;;2.19;92.65;97148.11;105261;1310;29140;-84
2021/11/17 02:45:41;;;;;;;19.90;13.30;;;;;;;2.20;92.70;97148.15;105209;1309;26123;-84
2021/11/17 02:48:24;;;;;;;19.20;14.00;;;;;;;2.15;92.56;97143.88;105250;1310;28738;-84
2021/11/17 02:51:28;;;;;;;18.00;9.90;;;;;;;2.09;92.50;97142.98;105239;1314;26695;-84
2021/11/17 02:54:35;;;;;;;17.40;11.20;;;;;;;2.10;92.55;97144.42;105036;1309;27633;-84
2021/11/17 02:57:20;;;;;;;21.30;13.30;;;;;;;2.07;92.54;97149.40;105213;1309;26299;-84
2021/11/17 03:00:25;;;;;;;19.70;13.70;;;;;;;2.05;92.55;97150.94;105245;1310;26048;-84
2021/11/17 03:03:13;;;;;;;21.80;14.30;;;;;;;2.04;92.40;97145.80;105155;1309;27242;-84
2021/11/17 03:05:56;;;;;;;22.00;14.30;;;;;;;2.00;92.39;97142.16;105440;1309;28010;-84
2021/11/17 03:08:49;;;;;;;22.20;16.00;;;;;;;1.99;92.33;97145.32;105286;1309;30971;-84
2021/11/17 03:11:33;;;;;;;20.60;13.80;;;;;;;1.94;92.30;97148.38;105299;1309;28049;-84
2021/11/17 03:14:25;;;;;;;14.40;9.10;;;;;;;1.89;92.19;97145.52;105310;1314;27472;-84
2021/11/17 03:17:25;;;;;;;16.20;10.80;;;;;;;1.86;92.23;97140.96;105270;1315;26815;-83
2021/11/17 03:20:11;;;;;;;19.90;14.00;;;;;;;1.87;92.28;97136.69;105307;1309;26998;-84
2021/11/17 03:22:55;;;;;;;20.20;13.80;;;;;;;1.85;92.40;97132.23;105369;1310;27800;-84
2021/11/17 03:25:49;;;;;;;19.20;13.60;;;;;;;1.86;92.57;97130.03;105327;1309;29497;-84
2021/11/17 03:28:35;;;;;;;20.40;13.20;;;;;;;1.89;92.61;97130.16;105314;1309;26338;-84
2021/11/17 03:31:21;;;;;;;20.70;13.20;;;;;;;1.90;92.64;97129.39;105230;1313;26194;-84
2021/11/17 03:34:11;;;;;;;19.00;13.00;;;;;;;1.93;92.67;97130.57;105136;1317;26115;-84
2021/11/17 03:37:02;;;;;;;24.10;14.30;;;;;;;1.94;92.44;97130.60;105263;1313;25421;-84
2021/11/17 03:40:14;;;;;;;23.30;14.60;;;;;;;1.95;92.48;97130.48;105197;1316;24986;-84
2021/11/17 03:43:04;;;;;;;21.30;13.70;;;;;;;1.98;92.58;97124.72;105260;1309;28355;-83
2021/11/17 03:45:55;;;;;;;19.40;13.00;;;;;;;2.05;92.45;97120.73;105090;1316;27855;-84
2021/11/17 03:48:39;;;;;;;22.20;14.50;;;;;;;2.08;92.53;97115.95;105179;1309;26432;-84
2021/11/17 03:51:35;;;;;;;22.70;14.20;;;;;;;2.12;92.21;97118.27;105299;1315;26551;-85
2021/11/17 03:54:20;;;;;;;22.80;14.00;;;;;;;2.14;92.10;97113.11;105312;1314;25444;-84
2021/11/17 03:57:13;;;;;;;17.30;11.10;;;;;;;2.19;92.14;97110.65;105326;1310;26462;-84
2021/11/17 04:00:11;;;;;;;19.90;13.80;;;;;;;2.19;91.88;97107.36;105334;1309;29981;-84
2021/11/17 04:06:00;;;;;;;19.00;12.80;;;;;;;2.08;91.55;97111.81;101599;1351;544992;-82
2021/11/17 04:08:52;;;;;;;22.60;15.00;;;;;;;2.01;91.53;97112.31;104408;1322;30491;-83
2021/11/17 04:11:41;;;;;;;17.10;11.00;;;;;;;1.97;91.47;97111.05;104395;1322;26317;-84
2021/11/17 04:14:25;;;;;;;19.90;13.50;;;;;;;1.96;91.68;97109.84;104450;1322;25751;-85
2021/11/17 04:17:17;;;;;;;20.40;13.20;;;;;;;1.95;91.75;97114.75;104390;1326;28420;-85
2021/11/17 04:19:58;;;;;;;15.80;8.30;;;;;;;1.93;91.83;97114.08;104656;1320;132263;-84
2021/11/17 04:22:49;;;;;;;19.90;13.90;;;;;;;1.97;91.68;97111.52;104681;1319;28694;-85
2021/11/17 04:25:36;;;;;;;18.40;12.10;;;;;;;1.99;91.61;97110.77;104700;1316;26308;-85
2021/11/17 04:28:24;;;;;;;21.00;13.60;;;;;;;1.96;91.45;97111.36;104722;1316;27394;-85
2021/11/17 04:31:19;;;;;;;17.40;11.60;;;;;;;1.94;91.33;97107.63;104741;1317;26104;-85
2021/11/17 04:34:35;;;;;;;20.50;11.40;;;;;;;1.93;91.42;97110.79;104706;1319;27330;-85
2021/11/17 04:37:30;;;;;;;18.80;11.80;;;;;;;1.93;91.43;97107.88;104625;1319;27052;-85
2021/11/17 04:40:24;;;;;;;19.50;11.70;;;;;;;2.00;91.52;97108.18;104691;1316;26318;-85
2021/11/17 04:43:15;;;;;;;19.40;11.00;;;;;;;1.97;91.12;97110.64;104730;1316;40361;-85
2021/11/17 04:45:58;;;;;;;20.30;13.40;;;;;;;1.93;91.02;97107.61;104715;1316;26271;-84
2021/11/17 04:48:52;;;;;;;20.30;13.30;;;;;;;1.91;91.02;97103.04;104745;1316;26189;-86
2021/11/17 04:51:45;;;;;;;17.90;13.00;;;;;;;1.90;91.11;97097.45;104693;1322;26705;-85
2021/11/17 04:54:39;;;;;;;20.70;11.20;;;;;;;1.86;90.94;97093.02;104730;1320;26749;-85
2021/11/17 04:57:29;;;;;;;20.50;13.40;;;;;;;1.83;90.88;97093.32;104744;1320;26427;-85
2021/11/17 05:00:28;;;;;;;18.50;11.60;;;;;;;1.83;90.96;97093.99;104733;1316;26185;-85
2021/11/17 05:03:13;;;;;;;20.00;12.60;;;;;;;1.87;90.94;97089.16;104649;1319;34794;-85
2021/11/17 05:06:00;;;;;;;20.50;13.30;;;;;;;1.89;90.97;97091.83;104731;1318;29565;-85
2021/11/17 05:08:38;;;;;;;21.00;14.10;;;;;;;1.90;90.89;97091.98;104672;1324;27061;-85
2021/11/17 05:11:21;;;;;;;20.20;13.50;;;;;;;1.86;90.96;97095.92;104709;1319;26755;-85
2021/11/17 05:13:59;;;;;;;19.10;12.50;;;;;;;1.82;90.85;97094.27;104680;1320;29452;-85
2021/11/17 05:16:42;;;;;;;22.20;14.10;;;;;;;1.80;90.91;97094.16;104649;1319;28907;-85
2021/11/17 05:19:21;;;;;;;19.70;12.40;;;;;;;1.78;90.73;97092.58;104740;1321;28841;-85
2021/11/17 05:22:05;;;;;;;21.30;13.00;;;;;;;1.76;90.86;97094.44;104743;1319;25676;-85
2021/11/17 05:24:53;;;;;;;19.60;12.80;;;;;;;1.84;90.98;97097.16;104737;1321;27700;-85
2021/11/17 05:27:42;;;;;;;22.20;13.80;;;;;;;1.90;91.15;97096.89;104702;1319;27409;-83
2021/11/17 05:30:28;;;;;;;19.00;12.80;;;;;;;1.91;90.89;97093.54;104813;1319;24972;-84
2021/11/17 05:33:13;;;;;;;20.70;12.90;;;;;;;1.92;90.68;97094.50;104684;1316;26890;-84
2021/11/17 05:35:57;;;;;;;21.10;14.10;;;;;;;1.97;90.91;97100.63;104722;1323;27184;-84
2021/11/17 05:38:41;;;;;;;22.40;14.50;;;;;;;1.97;90.65;97105.73;104667;1319;26200;-84
2021/11/17 05:41:29;;;;;;;20.90;12.60;;;;;;;1.93;90.56;97107.35;104811;1321;27148;-84
2021/11/17 05:44:17;;;;;;;20.80;12.40;;;;;;;1.93;90.44;97105.00;104656;1322;27619;-84
2021/11/17 05:47:02;;;;;;;20.00;13.30;;;;;;;1.94;90.49;97108.52;104716;1316;26892;-85
2021/11/17 05:49:45;;;;;;;15.60;10.70;;;;;;;1.92;90.43;97105.84;104676;1320;27319;-84
2021/11/17 05:52:34;;;;;;;17.90;12.60;;;;;;;1.94;90.39;97104.50;104664;1319;27205;-83
2021/11/17 05:55:26;;;;;;;20.70;13.90;;;;;;;1.93;90.36;97105.52;104719;1316;26140;-84
2021/11/17 05:58:13;;;;;;;20.60;11.90;;;;;;;1.90;90.07;97110.80;104643;1316;25651;-84
2021/11/17 06:01:16;;;;;;;19.30;12.60;;;;;;;1.92;90.09;97118.63;104654;1322;25818;-84
2021/11/17 06:03:55;;;;;;;22.20;12.90;;;;;;;2.01;90.12;97114.73;104735;1316;27844;-84
2021/11/17 06:06:23;;;;;;;18.50;12.10;;;;;;;2.03;90.15;97116.32;104718;1320;28738;-84
2021/11/17 06:08:54;;;;;;;17.70;11.00;;;;;;;2.03;89.93;97117.41;104708;1322;32223;-84
2021/11/17 06:11:28;;;;;;;20.10;12.20;;;;;;;2.02;89.73;97122.92;104724;1317;28675;-84
2021/11/17 06:14:00;;;;;;;20.90;14.00;;;;;;;2.03;89.76;97122.59;104725;1321;30765;-84
2021/11/17 06:16:35;;;;;;;21.40;12.50;;;;;;;2.02;89.67;97124.05;104692;1316;29187;-84
2021/11/17 06:19:06;;;;;;;20.60;14.30;;;;;;;2.02;89.46;97120.42;104669;1316;29107;-84
2021/11/17 06:21:39;;;;;;;18.30;12.20;;;;;;;2.07;89.57;97121.32;104693;1316;27872;-84
2021/11/17 06:24:13;;;;;;;19.40;13.50;;;;;;;2.21;89.58;97122.67;104707;1319;29515;-84
2021/11/17 06:26:49;;;;;;;16.00;11.00;;;;;;;2.36;89.41;97126.23;104781;1320;27579;-84
2021/11/17 06:29:24;;;;;;;18.20;11.10;;;;;;;2.52;89.15;97122.43;104757;1322;28492;-84
2021/11/17 06:31:58;;;;;;;18.60;12.40;;;;;;;2.67;88.84;97126.61;104753;1317;29075;-84
2021/11/17 06:34:36;;;;;;;18.80;11.30;;;;;;;2.80;88.43;97123.99;104893;1312;29683;-84
2021/11/17 06:37:08;;;;;;;20.20;13.70;;;;;;;2.93;88.09;97121.66;104924;1312;29990;-84
2021/11/17 06:39:49;;;;;;;18.90;13.10;;;;;;;3.07;87.69;97121.48;104932;1316;28057;-84
2021/11/17 06:42:22;;;;;;;19.70;12.60;;;;;;;3.18;87.31;97120.23;104940;1318;26837;-84
2021/11/17 06:44:54;;;;;;;21.30;12.40;;;;;;;3.23;86.81;97121.86;104967;1317;28781;-84
2021/11/17 06:47:26;;;;;;;20.00;13.20;;;;;;;3.42;86.48;97121.84;104923;1312;24592;-84
2021/11/17 06:49:57;;;;;;;19.20;12.70;;;;;;;3.67;86.01;97117.30;104920;1313;27446;-85
2021/11/17 06:52:28;;;;;;;16.80;11.50;;;;;;;3.82;85.22;97117.18;104894;1313;26741;-85
2021/11/17 06:54:59;;;;;;;13.70;8.40;;;;;;;3.92;84.86;97117.89;104922;1319;27527;-84
2021/11/17 06:57:30;;;;;;;16.00;10.70;;;;;;;3.92;84.02;97125.48;104765;1313;26816;-84
2021/11/17 07:00:01;;;;;;;16.50;10.60;;;;;;;3.88;83.67;97118.27;104934;1319;27536;-84
2021/11/17 07:02:31;;;;;;;20.20;13.70;;;;;;;3.84;83.53;97116.60;104944;1313;28881;-84
2021/11/17 07:05:04;;;;;;;22.20;11.20;;;;;;;3.90;83.64;97113.85;104937;1312;27791;-84
2021/11/17 07:07:35;;;;;;;18.50;13.40;;;;;;;3.98;83.23;97113.91;104883;1313;28408;-84
2021/11/17 07:10:08;;;;;;;17.40;11.20;;;;;;;3.93;82.81;97116.64;104917;1315;26542;-84
2021/11/17 07:12:39;;;;;;;21.50;13.50;;;;;;;3.92;82.75;97113.02;104951;1313;30857;-84
2021/11/17 07:15:12;;;;;;;19.20;12.50;;;;;;;3.95;82.63;97120.61;104950;1312;26418;-84
2021/11/17 07:17:43;;;;;;;19.50;13.30;;;;;;;4.00;82.56;97121.10;105000;1313;39182;-84
2021/11/17 07:20:16;;;;;;;18.90;11.20;;;;;;;4.00;82.21;97117.54;104999;1319;29484;-84
2021/11/17 07:22:48;;;;;;;17.70;12.40;;;;;;;4.11;81.78;97117.76;104878;1313;28518;-84
2021/11/17 07:25:21;;;;;;;17.90;10.90;;;;;;;4.36;81.45;97126.70;104927;1318;34638;-84
2021/11/17 07:27:52;;;;;;;17.50;11.70;;;;;;;4.66;81.15;97127.23;104884;1313;30672;-84
2021/11/17 07:30:26;;;;;;;17.60;12.10;;;;;;;4.93;80.36;97117.69;104901;1312;31637;-84
2021/11/17 07:32:57;;;;;;;16.40;10.50;;;;;;;5.27;79.97;97118.58;104987;1313;25486;-84
2021/11/17 07:35:29;;;;;;;18.60;12.70;;;;;;;5.46;78.85;97113.65;104918;1319;25660;-84
2021/11/17 07:38:02;;;;;;;15.60;9.80;;;;;;;5.59;78.43;97117.23;104855;1318;30197;-84
2021/11/17 07:40:35;;;;;;;14.20;9.10;;;;;;;5.72;77.95;97119.15;104972;1313;28618;-84
2021/11/17 07:43:09;;;;;;;14.50;10.00;;;;;;;5.80;77.00;97120.31;104914;1315;26054;-84
2021/11/17 07:45:42;;;;;;;18.90;12.90;;;;;;;5.73;76.15;97122.16;104964;1319;29083;-84
2021/11/17 07:48:16;;;;;;;20.20;13.00;;;;;;;6.01;77.01;97125.23;104950;1317;37628;-84
2021/11/17 07:50:48;;;;;;;15.30;10.40;;;;;;;6.15;75.55;97122.13;105133;1312;27354;-83
2021/11/17 07:53:21;;;;;;;13.10;8.60;;;;;;;6.08;75.72;97124.74;105069;1312;29156;-83
2021/11/17 07:55:55;;;;;;;12.20;8.60;;;;;;;6.18;74.77;97124.38;105139;1313;28428;-84
2021/11/17 07:58:28;;;;;;;18.80;13.00;;;;;;;5.97;74.19;97123.59;105124;1313;29500;-83
2021/11/17 08:01:01;;;;;;;20.50;10.00;;;;;;;5.90;74.83;97118.81;105080;1316;30112;-83
2021/11/17 08:03:34;;;;;;;15.70;10.70;;;;;;;5.87;74.76;97125.42;105125;1313;25589;-83
2021/11/17 08:06:07;;;;;;;18.50;12.20;;;;;;;5.87;74.83;97127.13;105032;1313;27708;-84
2021/11/17 08:08:39;;;;;;;17.00;11.20;;;;;;;5.88;74.26;97120.88;105146;1314;26873;-83
2021/11/17 08:11:14;;;;;;;16.60;10.90;;;;;;;5.73;74.48;97118.43;105216;1314;26138;-83
2021/11/17 08:13:45;;;;;;;18.50;11.40;;;;;;;5.71;74.68;97119.92;105188;1312;25409;-82
2021/11/17 08:16:17;;;;;;;16.40;10.70;;;;;;;5.64;74.62;97114.58;105041;1316;40391;-82
2021/11/17 08:18:48;;;;;;;17.70;11.90;;;;;;;5.56;75.15;97106.59;105115;1317;25819;-83
2021/11/17 08:21:19;;;;;;;20.20;12.50;;;;;;;5.57;75.32;97112.13;105109;1316;26117;-83
2021/11/17 08:23:51;;;;;;;18.00;11.80;;;;;;;5.62;75.11;97111.86;104948;1312;24324;-83
2021/11/17 08:26:23;;;;;;;18.40;12.60;;;;;;;5.65;75.43;97111.80;105055;1319;26109;-83
2021/11/17 08:28:55;;;;;;;19.50;11.70;;;;;;;5.77;75.58;97119.50;105063;1318;28980;-83
2021/11/17 08:31:26;;;;;;;16.90;10.20;;;;;;;5.98;75.48;97118.86;105185;1314;28296;-83
2021/11/17 08:33:55;;;;;;;;;;;;;;;6.00;75.00;97121.01;105102;1317;29012;-83
2021/11/17 08:36:27;;;;;;;17.10;10.90;;;;;;;5.96;75.04;97122.31;105128;1319;26322;-83
2021/11/17 08:38:58;;;;;;;17.30;11.20;;;;;;;5.98;75.18;97123.19;105190;1312;27031;-84
2021/11/17 08:41:29;;;;;;;15.60;10.60;;;;;;;6.08;75.04;97120.52;105089;1316;28548;-84
2021/11/17 08:43:59;;;;;;;18.90;12.60;;;;;;;6.14;74.97;97125.79;105139;1316;41378;-83
2021/11/17 08:46:33;;;;;;;18.40;11.70;;;;;;;6.18;74.92;97126.11;105114;1312;27913;-83
2021/11/17 08:49:05;;;;;;;18.50;11.60;;;;;;;6.11;74.65;97124.01;105153;1313;29090;-83
2021/11/17 08:51:36;;;;;;;18.30;12.50;;;;;;;6.15;75.01;97130.11;105148;1313;30807;-83
2021/11/17 08:54:07;;;;;;;18.50;11.80;;;;;;;6.18;74.75;97129.59;105110;1313;27118;-83
2021/11/17 08:56:40;;;;;;;20.80;13.10;;;;;;;6.21;74.55;97133.98;105151;1316;28729;-83
2021/11/17 08:59:10;;;;;;;17.40;11.70;;;;;;;6.27;74.47;97134.49;105150;1312;26912;-84
2021/11/17 09:01:42;;;;;;;21.50;12.40;;;;;;;6.34;74.68;97142.25;105212;1312;25901;-83
2021/11/17 09:04:13;;;;;;;17.00;11.90;;;;;;;6.40;74.64;97139.66;105197;1313;27456;-83
2021/11/17 09:06:44;;;;;;;19.70;12.40;;;;;;;6.54;74.87;97134.03;105229;1313;26023;-83
2021/11/17 09:09:14;;;;;;;18.60;12.90;;;;;;;6.61;74.40;97136.30;105161;1317;29898;-83
2021/11/17 09:11:46;;;;;;;17.70;12.40;;;;;;;6.70;74.34;97133.77;105167;1315;26825;-82
2021/11/17 09:14:16;;;;;;;17.40;12.20;;;;;;;6.80;74.69;97132.97;105097;1313;27798;-82
2021/11/17 09:16:48;;;;;;;20.30;13.00;;;;;;;6.94;74.98;97127.78;105145;1316;46325;-83
2021/11/17 09:19:20;;;;;;;17.20;11.90;;;;;;;7.06;74.23;97134.56;105139;1318;26881;-83
2021/11/17 09:21:53;;;;;;;18.70;13.10;;;;;;;7.18;74.26;97131.94;105118;1314;25184;-83
2021/11/17 09:24:25;;;;;;;17.70;11.40;;;;;;;7.30;74.39;97131.30;105105;1313;27554;-82
2021/11/17 09:26:57;;;;;;;18.90;12.10;;;;;;;7.47;73.90;97131.45;105132;1313;24300;-83
2021/11/17 09:29:31;;;;;;;17.80;13.20;;;;;;;7.55;73.36;97130.45;105157;1313;25268;-83
2021/11/17 09:32:02;;;;;;;17.70;12.70;;;;;;;7.55;72.90;97128.91;105139;1313;25319;-83
2021/11/17 09:34:35;;;;;;;16.70;11.60;;;;;;;7.55;72.99;97128.77;105068;1315;28245;-83
2021/11/17 09:37:08;;;;;;;23.20;14.20;;;;;;;7.57;72.45;97125.14;105184;1316;28068;-83
2021/11/17 09:39:40;;;;;;;21.30;13.30;;;;;;;7.71;73.23;97122.36;105113;1319;26316;-83
2021/11/17 09:42:17;;;;;;;20.80;13.20;;;;;;;7.89;72.94;97118.44;105167;1312;25340;-83
2021/11/17 09:44:48;;;;;;;17.10;11.50;;;;;;;7.92;72.01;97118.79;105162;1313;26247;-82
2021/11/17 09:47:22;;;;;;;15.40;11.30;;;;;;;7.96;72.14;97111.70;105115;1317;26685;-83
2021/11/17 09:49:58;;;;;;;16.40;10.50;;;;;;;8.02;71.41;97110.32;105150;1316;26278;-82
2021/11/17 09:52:33;;;;;;;17.90;12.10;;;;;;;8.03;71.35;97107.18;105152;1316;26516;-82
2021/11/17 09:55:10;;;;;;;15.00;10.10;;;;;;;8.05;71.29;97105.50;105110;1312;25482;-83
2021/11/17 09:57:43;;;;;;;16.70;10.70;;;;;;;8.09;71.11;97104.95;105196;1319;24717;-83
2021/11/17 10:00:20;;;;;;;15.60;10.40;;;;;;;8.01;70.71;97105.29;105225;1319;24036;-83
2021/11/17 10:03:06;;;;;;;16.00;11.00;;;;;;;8.11;70.89;97105.87;105187;1313;24471;-83
2021/11/17 10:08:50;;;;;;;13.40;9.40;;;;;;;8.06;69.99;97102.77;105131;1312;26140;-83
2021/11/17 10:11:39;;;;;;;13.70;9.90;;;;;;;8.00;68.74;97099.59;105061;1317;24781;-83
2021/11/17 10:14:28;;;;;;;16.30;10.90;;;;;;;7.87;68.14;97092.16;105150;1317;24393;-83
2021/11/17 10:16:59;;;;;;;11.30;6.80;;;;;;;7.77;68.17;97088.80;105168;1314;28840;-83
2021/11/17 10:19:33;;;;;;;14.10;10.60;;;;;;;7.68;67.45;97088.80;105125;1317;29790;-83
2021/11/17 10:22:07;;;;;;;15.10;10.30;;;;;;;7.61;67.69;97093.17;105170;1312;26595;-83
2021/11/17 10:24:49;;;;;;;13.30;8.80;;;;;;;7.75;68.63;97090.30;105153;1319;27396;-83
2021/11/17 10:27:26;;;;;;;11.60;6.80;;;;;;;7.85;67.82;97085.02;105190;1319;26645;-83
2021/11/17 10:30:05;;;;;;;14.50;7.40;;;;;;;7.79;67.53;97089.30;105193;1313;25666;-83
2021/11/17 10:32:43;;;;;;;16.00;11.00;;;;;;;7.82;67.87;97084.09;105133;1315;29167;-83
2021/11/17 10:35:26;;;;;;;14.90;10.70;;;;;;;8.10;69.14;97081.62;105250;1316;25225;-83
2021/11/17 10:38:06;;;;;;;16.30;10.20;;;;;;;8.37;68.77;97083.30;105123;1318;27306;-83
2021/11/17 10:40:49;;;;;;;15.60;10.70;;;;;;;8.47;68.58;97081.75;105137;1313;26547;-83
2021/11/17 10:43:24;;;;;;;16.00;10.20;;;;;;;8.56;68.54;97080.33;105139;1316;25788;-82
2021/11/17 10:46:04;;;;;;;14.90;10.10;;;;;;;8.68;68.47;97082.74;105209;1316;24174;-83
2021/11/17 10:48:37;;;;;;;14.50;9.90;;;;;;;8.70;67.77;97079.96;105198;1316;27730;-83
2021/11/17 10:51:14;;;;;;;14.10;9.70;;;;;;;8.64;67.51;97080.83;105298;1315;27358;-82
2021/11/17 10:53:50;;;;;;;16.30;10.90;;;;;;;8.58;66.63;97075.27;105368;1309;25568;-82
2021/11/17 10:56:24;;;;;;;14.20;9.50;;;;;;;8.54;66.99;97080.15;105322;1313;26385;-82
2021/11/17 10:58:57;;;;;;;14.70;10.40;;;;;;;8.58;66.75;97080.14;105338;1307;26645;-82
2021/11/17 11:01:32;;;;;;;16.50;10.30;;;;;;;8.71;67.47;97079.55;105309;1309;27017;-82
2021/11/17 11:04:07;;;;;;;15.00;10.80;;;;;;;8.92;67.44;97072.59;105300;1314;25489;-82
2021/11/17 11:06:42;;;;;;;16.40;10.20;;;;;;;9.03;66.70;97071.55;105292;1314;29116;-82
2021/11/17 11:09:18;;;;;;;15.40;10.80;;;;;;;9.02;66.86;97066.92;105389;1309;25045;-82
2021/11/17 11:11:51;;;;;;;15.10;10.30;;;;;;;9.15;66.84;97062.67;105295;1309;26827;-82
2021/11/17 11:14:25;;;;;;;15.80;9.90;;;;;;;9.32;67.07;97057.08;105349;1314;26292;-82
2021/11/17 11:17:32;;;;;;;16.70;10.50;;;;;;;9.40;65.93;97051.86;105323;1313;25543;-82
2021/11/17 11:20:36;;;;;;;16.90;10.10;;;;;;;9.44;66.22;97048.45;105336;1315;32849;-82
2021/11/17 11:23:26;;;;;;;15.70;11.20;;;;;;;9.37;65.63;97044.44;105359;1309;26150;-83
2021/11/17 11:26:20;;;;;;;15.80;11.00;;;;;;;9.34;66.08;97047.20;105327;1310;25419;-82
2021/11/17 11:29:28;;;;;;;16.10;10.80;;;;;;;9.43;65.66;97046.53;105260;1310;24834;-82
2021/11/17 11:32:00;;;;;;;14.00;10.00;;;;;;;9.43;65.03;97048.13;105323;1316;27892;-83
2021/11/17 11:35:09;;;;;;;13.10;8.10;;;;;;;9.47;65.39;97052.91;105353;1315;27260;-83
2021/11/17 11:38:05;;;;;;;14.40;9.30;;;;;;;9.31;63.45;97045.33;105366;1310;25489;-83
2021/11/17 11:41:10;;;;;;;16.10;10.90;;;;;;;8.86;63.88;97048.28;105334;1309;25265;-84
2021/11/17 11:43:44;;;;;;;17.10;10.60;;;;;;;8.66;64.28;97041.82;105338;1316;25578;-83
2021/11/17 11:46:34;;;;;;;18.10;12.00;;;;;;;8.54;64.57;97042.16;105350;1310;29676;-83
2021/11/17 11:49:31;;;;;;;15.70;11.20;;;;;;;8.50;65.26;97047.90;105363;1316;25502;-83
2021/11/17 11:52:28;;;;;;;15.20;8.70;;;;;;;8.41;65.15;97048.52;105344;1314;35226;-83
2021/11/17 11:55:20;;;;;;;18.20;11.20;;;;;;;8.13;64.98;97048.33;105348;1310;24800;-83
2021/11/17 11:57:55;;;;;;;12.90;8.70;;;;;;;7.88;65.23;97044.83;105293;1316;35665;-84
2021/11/17 12:00:30;;;;;;;19.40;11.00;;;;;;;7.72;65.68;97042.92;105352;1309;29037;-83
2021/11/17 12:03:04;;;;;;;14.90;9.70;;;;;;;7.63;66.06;97047.02;105362;1309;28002;-83
2021/11/17 12:05:47;;;;;;;15.50;10.40;;;;;;;7.64;67.09;97047.71;105349;1313;27943;-83
2021/11/17 12:08:20;;;;;;;16.90;10.50;;;;;;;7.75;67.19;97050.34;105300;1314;27106;-83
2021/11/17 12:11:07;;;;;;;18.60;11.20;;;;;;;7.77;67.09;97047.63;105329;1309;26843;-83
2021/11/17 12:13:40;;;;;;;17.80;11.40;;;;;;;7.90;67.27;97041.26;105274;1315;44849;-83
2021/11/17 12:16:19;;;;;;;16.50;10.80;;;;;;;8.13;67.78;97040.98;105439;1314;26719;-84
2021/11/17 12:18:53;;;;;;;18.10;11.60;;;;;;;8.25;67.26;97035.63;104530;1316;1087765;-83
2021/11/17 12:21:27;;;;;;;17.30;10.80;;;;;;;8.35;67.54;97032.14;105383;1310;25556;-83
2021/11/17 12:24:09;;;;;;;18.90;12.30;;;;;;;8.49;67.59;97035.38;105358;1310;26831;-83
2021/11/17 12:26:42;;;;;;;15.60;10.90;;;;;;;8.54;66.89;97037.20;105327;1314;24142;-83
2021/11/17 12:29:17;;;;;;;18.10;11.10;;;;;;;8.32;66.84;97036.59;105388;1313;25031;-83
2021/11/17 12:31:56;;;;;;;20.60;12.80;;;;;;;8.15;66.82;97043.75;105281;1314;28290;-82
2021/11/17 12:34:30;;;;;;;19.40;12.00;;;;;;;8.07;67.27;97039.88;105341;1313;28822;-83
2021/11/17 12:37:04;;;;;;;20.30;11.70;;;;;;;8.06;67.52;97038.28;105391;1313;26997;-83
2021/11/17 12:39:47;;;;;;;15.70;11.10;;;;;;;8.02;67.69;97033.11;105344;1313;26782;-83
2021/11/17 12:42:27;;;;;;;18.00;11.90;;;;;;;7.92;67.73;97033.05;105414;1309;26405;-83
2021/11/17 12:44:59;;;;;;;19.90;12.30;;;;;;;7.82;67.62;97031.78;105308;1314;25658;-83
2021/11/17 12:47:41;;;;;;;18.20;11.90;;;;;;;7.76;68.24;97043.14;105372;1316;24517;-83
2021/11/17 12:50:15;;;;;;;15.70;11.80;;;;;;;7.76;68.21;97040.17;105404;1309;28139;-83
2021/11/17 12:52:50;;;;;;;18.80;11.00;;;;;;;7.76;68.28;97041.71;105407;1313;28024;-83
2021/11/17 12:55:28;;;;;;;17.70;11.20;;;;;;;7.73;68.27;97042.88;105339;1309;27780;-82
2021/11/17 12:58:06;;;;;;;19.40;13.20;;;;;;;7.71;68.63;97040.17;105320;1313;25503;-83
2021/11/17 13:00:58;;;;;;;17.00;11.50;;;;;;;7.69;68.59;97040.89;105374;1309;29900;-83
2021/11/17 13:03:40;;;;;;;16.60;10.90;;;;;;;7.61;68.29;97036.39;105341;1316;26588;-83
2021/11/17 13:06:21;;;;;;;18.00;11.70;;;;;;;7.53;68.63;97034.97;105416;1316;27833;-83
2021/11/17 13:09:11;;;;;;;17.30;10.50;;;;;;;7.49;68.71;97039.90;105362;1313;32784;-83
2021/11/17 13:11:58;;;;;;;18.80;12.40;;;;;;;7.48;68.69;97040.73;105442;1311;27229;-83
2021/11/17 13:14:34;;;;;;;17.60;11.30;;;;;;;7.46;68.89;97039.70;105408;1309;24576;-83
2021/11/17 13:17:11;;;;;;;17.10;10.50;;;;;;;7.50;68.85;97041.27;105382;1315;26287;-83
2021/11/17 13:19:50;;;;;;;14.90;10.60;;;;;;;7.42;68.85;97040.80;105363;1311;44536;-84
2021/11/17 13:22:30;;;;;;;17.70;11.60;;;;;;;7.34;68.77;97041.78;105411;1313;23985;-83
2021/11/17 13:25:32;;;;;;;19.20;12.30;;;;;;;7.23;68.43;97037.64;105370;1310;25516;-83
2021/11/17 13:28:05;;;;;;;17.40;11.20;;;;;;;7.11;68.63;97035.50;105336;1316;32471;-83
2021/11/17 13:30:42;;;;;;;19.00;12.10;;;;;;;7.07;69.10;97035.77;105375;1313;42573;-83
2021/11/17 13:33:29;;;;;;;23.20;13.30;;;;;;;7.01;68.94;97035.21;105446;1313;28799;-83
2021/11/17 13:36:10;;;;;;;18.60;12.70;;;;;;;6.94;69.32;97039.30;105363;1313;37173;-83
2021/11/17 13:38:53;;;;;;;16.40;11.00;;;;;;;6.89;69.41;97043.70;105353;1313;28290;-83
2021/11/17 13:41:23;;;;;;;20.70;13.60;;;;;;;6.81;69.57;97040.91;105376;1313;26308;-83
2021/11/17 13:43:55;;;;;;;34.90;19.70;;;;;;;6.73;69.69;97044.06;105363;1309;37918;-83
2021/11/17 13:46:27;;;;;;;52.80;25.60;;;;;;;6.68;69.80;97048.64;105360;1313;28586;-83
2021/11/17 13:48:58;;;;;;;46.10;24.90;;;;;;;6.64;70.12;97052.33;105332;1309;28741;-83
2021/11/17 13:51:30;;;;;;;33.40;18.10;;;;;;;6.61;70.27;97053.00;105316;1310;31117;-83
2021/11/17 13:54:01;;;;;;;53.70;24.70;;;;;;;6.57;70.46;97052.69;105368;1310;26306;-83
2021/11/17 13:56:37;;;;;;;49.30;25.20;;;;;;;6.54;70.45;97051.48;105365;1313;26938;-83
2021/11/17 13:59:09;;;;;;;55.10;28.00;;;;;;;6.53;70.82;97054.70;105287;1309;47878;-83
2021/11/17 14:01:39;;;;;;;27.00;16.00;;;;;;;6.55;70.99;97055.19;105384;1310;25659;-83
2021/11/17 14:04:10;;;;;;;24.40;16.20;;;;;;;6.54;70.92;97060.71;105379;1312;26941;-83
2021/11/17 14:06:41;;;;;;;25.80;15.40;;;;;;;6.51;71.14;97067.94;105449;1309;24579;-83
2021/11/17 14:09:13;;;;;;;20.00;13.60;;;;;;;6.48;71.15;97065.73;105362;1313;29208;-83
2021/11/17 14:11:44;;;;;;;27.90;16.30;;;;;;;6.46;71.10;97064.80;105412;1316;28364;-83
2021/11/17 14:14:13;;;;;;;;;;;;;;;6.40;71.12;97063.87;105442;1311;24804;-83
2021/11/17 14:16:44;;;;;;;21.60;13.90;;;;;;;6.32;71.31;97063.84;105421;1316;26718;-83
2021/11/17 14:19:14;;;;;;;20.40;13.50;;;;;;;6.26;71.31;97064.17;105387;1313;29315;-83
2021/11/17 14:21:44;;;;;;;;;;;;;;;6.22;71.44;97062.54;105430;1316;26979;-83
2021/11/17 14:24:16;;;;;;;29.90;16.70;;;;;;;6.17;71.48;97060.34;105438;1311;27518;-83
2021/11/17 14:26:49;;;;;;;33.20;17.40;;;;;;;6.14;71.74;97054.81;105353;1316;25714;-83
2021/11/17 14:29:32;;;;;;;23.00;15.20;;;;;;;6.09;71.90;97055.02;105374;1313;28225;-83
2021/11/17 14:32:07;;;;;;;24.90;15.60;;;;;;;6.02;72.01;97053.45;105402;1313;24529;-83
2021/11/17 14:34:39;;;;;;;36.90;20.60;;;;;;;5.98;71.92;97054.70;105410;1313;26069;-83
2021/11/17 14:37:10;;;;;;;24.80;14.90;;;;;;;5.94;71.88;97053.81;105405;1313;24468;-83
2021/11/17 14:39:44;;;;;;;21.10;13.50;;;;;;;5.97;72.01;97058.70;105452;1315;24765;-83
2021/11/17 14:42:16;;;;;;;20.50;13.10;;;;;;;5.94;71.93;97057.61;105415;1316;27299;-83
2021/11/17 14:44:48;;;;;;;19.20;11.90;;;;;;;5.93;72.07;97056.02;105400;1313;30591;-82
2021/11/17 14:47:18;;;;;;;17.80;11.40;;;;;;;5.90;72.17;97052.66;105392;1310;26007;-83
2021/11/17 14:49:49;;;;;;;14.70;9.40;;;;;;;5.91;72.22;97054.97;105372;1311;28328;-83